KTRK

Truckee-Tahoe Airport

Truckee, California, USA
KTRK 232320Z 2400/2424 26008KT P6SM BKN180 FM240200 VRB03KT P6SM SCT180 FM242100 25007KT P6SM SCT180
Issued Valid From Valid To
Oct-23 @ 23:20 UTC
(6 hours ago)
Oct-24 @ 00:00 UTC
(5 hours ago)
Oct-25 @ 00:00 UTC
(in 19 hours)
Expired Click to View Oct-24 @ 00:00 to Oct-24 @ 02:00
KTRK 232320Z 2400/2424 26008KT P6SM BKN180
Wind Visibility Clouds
260° at 8 knots Greater than 6 miles
  • Broken at 18,000' AGL
From Oct-24 @ 02:00 to Oct-24 @ 21:00
FM240200 VRB03KT P6SM SCT180
Wind Visibility Clouds
Variable at 3 knots Greater than 6 miles
  • Scattered at 18,000' AGL
From Oct-24 @ 21:00 to Oct-25 @ 00:00
FM242100 25007KT P6SM SCT180
Wind Visibility Clouds
250° at 7 knots Greater than 6 miles
  • Scattered at 18,000' AGL
KTRK 232320Z 2400/2424 26008KT P6SM BKN180 FM240200 VRB03KT P6SM SCT180 FM242100 25007KT P6SM SCT180
Issued Oct-23 @ 23:20 UTC
(6 hours ago)
Valid From Oct-24 @ 00:00 UTC
(5 hours ago)
Valid To Oct-25 @ 00:00 UTC
(in 19 hours)
Oct-24 @ 00:00 - Oct-24 @ 02:00
Wind Visibility
260° at 8 knots Greater than 6 miles
Clouds
  • Broken at 18,000' AGL
From Oct-24 @ 02:00 - Oct-24 @ 21:00
Wind Visibility
Variable at 3 knots Greater than 6 miles
Clouds
  • Scattered at 18,000' AGL
From Oct-24 @ 21:00 - Oct-25 @ 00:00
Wind Visibility
250° at 7 knots Greater than 6 miles
Clouds
  • Scattered at 18,000' AGL